Time;durP1;ratioP1;P1;durP2;ratioP2;P2;SDS_P1;SDS_P2;PMS_P1;PMS_P2;Temp;Humidity;BMP_temperature;BMP_pressure;BME280_temperature;BME280_humidity;BME280_pressure;Samples;Min_cycle;Max_cycle;Signal;HPM_P1;HPM_P2
2021/03/01 00:02:17;;;;;;;;;;;-1.40;97.30;;;;;;5055779;28;20297;-71
2021/03/01 00:04:43;;;;;;;;;;;-1.30;97.80;;;;;;5061178;28;19990;-71
2021/03/01 00:07:08;;;;;;;;;;;-1.40;97.60;;;;;;5057122;28;19923;-70
2021/03/01 00:09:34;;;;;;;;;;;-1.50;97.30;;;;;;5056706;28;19927;-70
2021/03/01 00:11:59;;;;;;;;;;;-1.50;97.60;;;;;;5056554;28;20334;-70
2021/03/01 00:14:25;;;;;;;;;;;-1.60;97.60;;;;;;5048607;28;19915;-71
2021/03/01 00:16:50;;;;;;;;;;;-1.60;97.70;;;;;;5067282;28;19908;-70
2021/03/01 00:19:16;;;;;;;;;;;-1.70;97.70;;;;;;5057969;28;19909;-70
2021/03/01 00:21:42;;;;;;;;;;;-1.60;97.60;;;;;;5066161;28;19917;-71
2021/03/01 00:24:07;;;;;;;;;;;-1.60;97.80;;;;;;5056402;28;19913;-71
2021/03/01 00:26:33;;;;;;;;;;;-1.50;98.00;;;;;;5059081;28;19924;-72
2021/03/01 00:28:58;;;;;;;;;;;-1.50;97.90;;;;;;5055915;28;20263;-71
2021/03/01 00:31:24;;;;;;;;;;;-1.50;97.90;;;;;;5073636;28;19916;-71
2021/03/01 00:33:49;;;;;;;;;;;-1.50;97.90;;;;;;5057611;28;19966;-72
2021/03/01 00:36:15;;;;;;;;;;;-1.50;98.00;;;;;;5062972;28;19912;-72
2021/03/01 00:38:40;;;;;;;;;;;-1.60;97.60;;;;;;5062513;28;19908;-71
2021/03/01 00:41:06;;;;;;;;;;;-1.60;97.80;;;;;;5058593;28;19909;-72
2021/03/01 00:43:32;;;;;;;;;;;-1.60;98.00;;;;;;5073480;28;19908;-72
2021/03/01 00:45:57;;;;;;;;;;;-1.70;97.90;;;;;;5063536;28;19916;-72
2021/03/01 00:48:23;;;;;;;;;;;-1.70;98.00;;;;;;5055167;28;19990;-72
2021/03/01 00:50:49;;;;;;;;;;;-1.70;98.00;;;;;;5071298;28;19912;-72
2021/03/01 00:53:25;;;;;;;;;;;-1.70;98.00;;;;;;5058325;28;20294;-72
2021/03/01 00:55:50;;;;;;;;;;;-1.70;98.00;;;;;;5055718;28;19935;-71
2021/03/01 00:58:16;;;;;;;;;;;-1.80;98.00;;;;;;5059254;28;19913;-72
2021/03/01 01:00:42;;;;;;;;;;;-1.90;98.00;;;;;;5057107;28;19915;-71
2021/03/01 01:03:07;;;;;;;;;;;-1.90;98.00;;;;;;5058547;28;19952;-71
2021/03/01 01:05:33;;;;;;;;;;;-1.80;98.00;;;;;;5067406;28;19912;-71
2021/03/01 01:07:58;;;;;;;;;;;-1.70;98.00;;;;;;5053950;28;19919;-71
2021/03/01 01:10:24;;;;;;;;;;;-1.80;98.00;;;;;;5061880;28;19909;-71
2021/03/01 01:12:49;;;;;;;;;;;-1.70;98.00;;;;;;5064243;28;19913;-71
2021/03/01 01:15:16;;;;;;;;;;;-1.70;98.00;;;;;;5063316;28;19916;-71
2021/03/01 01:17:41;;;;;;;;;;;-1.70;98.00;;;;;;5055049;28;19955;-72
2021/03/01 01:20:08;;;;;;;;;;;-1.70;98.00;;;;;;5055568;28;20278;-73
2021/03/01 01:22:34;;;;;;;;;;;-1.70;98.00;;;;;;5055389;28;19983;-72
2021/03/01 01:25:00;;;;;;;;;;;-1.70;98.00;;;;;;5051768;28;19999;-73
2021/03/01 01:27:25;;;;;;;;;;;-1.70;98.00;;;;;;5055218;28;19916;-72
2021/03/01 01:29:51;;;;;;;;;;;-1.70;98.00;;;;;;5050165;28;19909;-73
2021/03/01 01:32:16;;;;;;;;;;;-1.80;98.00;;;;;;5069869;28;20553;-73
2021/03/01 01:34:42;;;;;;;;;;;-1.90;98.00;;;;;;5062152;28;19909;-72
2021/03/01 01:37:07;;;;;;;;;;;-1.90;98.00;;;;;;5059288;28;19916;-73
2021/03/01 01:39:33;;;;;;;;;;;-1.90;98.00;;;;;;5066020;28;19908;-72
2021/03/01 01:41:58;;;;;;;;;;;-2.00;98.00;;;;;;5064598;28;19909;-72
2021/03/01 01:44:24;;;;;;;;;;;-1.90;98.00;;;;;;5066663;28;20220;-72
2021/03/01 01:46:49;;;;;;;;;;;-2.00;98.00;;;;;;5057080;28;19927;-72
2021/03/01 01:49:15;;;;;;;;;;;-2.10;98.00;;;;;;5063471;28;19919;-72
2021/03/01 01:51:42;;;;;;;;;;;-2.10;97.90;;;;;;5059430;28;19912;-71
2021/03/01 01:54:08;;;;;;;;;;;-2.10;98.00;;;;;;5052899;28;19908;-72
2021/03/01 01:56:33;;;;;;;;;;;-2.20;98.00;;;;;;5058750;28;19916;-72
2021/03/01 01:58:59;;;;;;;;;;;-2.20;98.00;;;;;;5060989;28;19912;-72
2021/03/01 02:01:24;;;;;;;;;;;-2.20;98.00;;;;;;5066044;28;19948;-72
2021/03/01 02:03:50;;;;;;;;;;;-2.20;98.00;;;;;;5065138;28;20633;-73
2021/03/01 02:06:16;;;;;;;;;;;-2.20;97.90;;;;;;5067025;28;20327;-72
2021/03/01 02:08:50;;;;;;;;;;;-2.10;98.00;;;;;;5059028;28;19978;-71
2021/03/01 02:11:21;;;;;;;;;;;-2.10;98.00;;;;;;5070937;28;20304;-71
2021/03/01 02:13:50;;;;;;;;;;;-2.20;98.00;;;;;;5048691;28;20228;-72
2021/03/01 02:16:18;;;;;;;;;;;-2.30;98.00;;;;;;5073850;28;19954;-71
2021/03/01 02:18:44;;;;;;;;;;;-2.30;98.00;;;;;;5058017;28;20355;-72
2021/03/01 02:21:10;;;;;;;;;;;-2.20;98.00;;;;;;5068969;28;19913;-72
2021/03/01 02:23:37;;;;;;;;;;;-2.10;98.00;;;;;;5069000;28;19951;-72
2021/03/01 02:26:04;;;;;;;;;;;-2.20;98.00;;;;;;5064000;28;19908;-72
2021/03/01 02:28:34;;;;;;;;;;;-2.20;98.00;;;;;;5059099;28;20020;-71
2021/03/01 02:31:01;;;;;;;;;;;-2.30;98.00;;;;;;5055983;28;19919;-73
2021/03/01 02:33:47;;;;;;;;;;;-2.30;98.00;;;;;;5058941;28;19916;-72
2021/03/01 02:36:17;;;;;;;;;;;-2.30;98.00;;;;;;5077392;28;19947;-72
2021/03/01 02:38:43;;;;;;;;;;;-2.20;98.00;;;;;;5068486;28;19948;-72
2021/03/01 02:41:10;;;;;;;;;;;-2.20;98.00;;;;;;5077693;28;19959;-72
2021/03/01 02:43:36;;;;;;;;;;;-2.20;98.00;;;;;;5071438;28;19921;-72
2021/03/01 02:46:02;;;;;;;;;;;-2.30;98.00;;;;;;5061949;28;19909;-72
2021/03/01 02:48:28;;;;;;;;;;;-2.30;98.00;;;;;;5070477;28;19912;-72
2021/03/01 02:50:54;;;;;;;;;;;-2.30;98.00;;;;;;5062273;28;20300;-72
2021/03/01 02:53:19;;;;;;;;;;;-2.30;98.00;;;;;;5069625;28;20012;-71
2021/03/01 02:55:46;;;;;;;;;;;-2.30;98.00;;;;;;5060868;28;19938;-72
2021/03/01 02:58:13;;;;;;;;;;;-2.40;98.00;;;;;;5070945;28;19920;-73
2021/03/01 03:00:39;;;;;;;;;;;-2.30;98.00;;;;;;5069160;28;19913;-72
2021/03/01 03:03:05;;;;;;;;;;;-2.30;98.00;;;;;;5050636;28;19909;-73
2021/03/01 03:05:31;;;;;;;;;;;-2.20;98.00;;;;;;5059167;28;19954;-71
2021/03/01 03:07:57;;;;;;;;;;;-2.20;98.00;;;;;;5075900;28;20006;-72
2021/03/01 03:10:22;;;;;;;;;;;-2.30;98.00;;;;;;5062193;28;20003;-72
2021/03/01 03:12:48;;;;;;;;;;;-2.30;98.00;;;;;;5067226;28;20361;-72
2021/03/01 03:15:15;;;;;;;;;;;-2.50;98.00;;;;;;5065694;28;20267;-73
2021/03/01 03:17:41;;;;;;;;;;;-2.70;98.00;;;;;;5064758;28;19963;-74
2021/03/01 03:20:07;;;;;;;;;;;-2.70;98.00;;;;;;5057977;28;20366;-72
2021/03/01 03:22:33;;;;;;;;;;;-2.70;98.00;;;;;;5062096;28;19991;-71
2021/03/01 03:24:59;;;;;;;;;;;-2.60;97.90;;;;;;5057405;28;19948;-71
2021/03/01 03:27:25;;;;;;;;;;;-2.50;98.00;;;;;;5075401;28;20335;-72
2021/03/01 03:29:50;;;;;;;;;;;-2.40;98.00;;;;;;5075738;28;19995;-71
2021/03/01 03:32:16;;;;;;;;;;;-2.20;98.00;;;;;;5063661;28;20224;-72
2021/03/01 03:34:42;;;;;;;;;;;-2.20;98.00;;;;;;5061258;28;19966;-72
2021/03/01 03:37:09;;;;;;;;;;;-2.30;98.00;;;;;;5071203;28;19908;-72
2021/03/01 03:39:37;;;;;;;;;;;-2.30;98.00;;;;;;5057673;28;20359;-72
2021/03/01 03:42:03;;;;;;;;;;;-2.40;98.00;;;;;;5066234;28;20007;-72
2021/03/01 03:44:31;;;;;;;;;;;-2.40;98.00;;;;;;5067217;28;19996;-72
2021/03/01 03:46:57;;;;;;;;;;;-2.50;98.00;;;;;;5057806;28;20015;-72
2021/03/01 03:49:23;;;;;;;;;;;-2.50;98.00;;;;;;5058334;28;19908;-72
2021/03/01 03:51:50;;;;;;;;;;;-2.60;98.00;;;;;;5062181;28;20276;-72
2021/03/01 03:54:21;;;;;;;;;;;-2.60;98.00;;;;;;5064957;28;20298;-72
2021/03/01 03:56:50;;;;;;;;;;;-2.60;98.00;;;;;;5063668;28;19908;-71
2021/03/01 03:59:16;;;;;;;;;;;-2.40;98.00;;;;;;5074890;28;19958;-70
2021/03/01 04:01:42;;;;;;;;;;;-2.40;98.00;;;;;;5062220;28;20213;-70
2021/03/01 04:04:08;;;;;;;;;;;-2.30;98.00;;;;;;5076136;28;19916;-70
2021/03/01 04:06:41;;;;;;;;;;;-2.30;98.00;;;;;;5065790;28;19915;-71
2021/03/01 04:09:09;;;;;;;;;;;-2.30;98.00;;;;;;5067253;28;19908;-72
2021/03/01 04:11:35;;;;;;;;;;;-2.40;98.00;;;;;;5070978;28;19909;-72
2021/03/01 04:14:02;;;;;;;;;;;-2.50;98.00;;;;;;5058521;28;19916;-72
2021/03/01 04:16:30;;;;;;;;;;;-2.60;98.00;;;;;;5060289;28;19916;-72
2021/03/01 04:18:56;;;;;;;;;;;-2.70;98.00;;;;;;5057026;28;21188;-72
2021/03/01 04:21:23;;;;;;;;;;;-2.60;97.80;;;;;;5057857;28;20301;-73
2021/03/01 04:23:49;;;;;;;;;;;-2.60;98.00;;;;;;5062546;28;20004;-72
2021/03/01 04:26:15;;;;;;;;;;;-2.60;98.00;;;;;;5059415;28;20317;-73
2021/03/01 04:28:41;;;;;;;;;;;-2.60;98.00;;;;;;5062057;28;19909;-71
2021/03/01 04:31:08;;;;;;;;;;;-2.70;98.00;;;;;;5050769;28;19948;-72
2021/03/01 04:33:35;;;;;;;;;;;-2.80;98.00;;;;;;5069736;28;19908;-73
2021/03/01 04:36:01;;;;;;;;;;;-2.80;98.00;;;;;;5060685;28;19995;-72
2021/03/01 04:38:26;;;;;;;;;;;-2.80;98.00;;;;;;5068277;28;19905;-72
2021/03/01 04:40:52;;;;;;;;;;;-2.80;98.00;;;;;;5054174;28;19921;-72
2021/03/01 04:43:19;;;;;;;;;;;-2.80;98.00;;;;;;5060871;28;19962;-73
2021/03/01 04:45:45;;;;;;;;;;;-2.80;98.00;;;;;;5054892;28;20023;-73
2021/03/01 04:48:12;;;;;;;;;;;-2.80;98.00;;;;;;5064772;28;19940;-73
2021/03/01 04:50:38;;;;;;;;;;;-2.80;98.00;;;;;;5057451;28;20309;-73
2021/03/01 04:53:03;;;;;;;;;;;-2.90;98.00;;;;;;5055378;28;19913;-72
2021/03/01 04:55:29;;;;;;;;;;;-3.00;98.00;;;;;;5064252;28;19913;-73
2021/03/01 04:57:56;;;;;;;;;;;-3.00;98.00;;;;;;5057908;28;19905;-73
2021/03/01 05:00:22;;;;;;;;;;;-2.90;97.70;;;;;;5055859;28;19916;-71
2021/03/01 05:02:48;;;;;;;;;;;-2.80;98.00;;;;;;5059928;28;19909;-72
2021/03/01 05:05:14;;;;;;;;;;;-2.80;98.00;;;;;;5060821;28;20216;-72
2021/03/01 05:07:40;;;;;;;;;;;-2.80;98.00;;;;;;5059909;28;19924;-72
2021/03/01 05:10:06;;;;;;;;;;;-2.90;98.00;;;;;;5064979;28;19916;-71
2021/03/01 05:12:32;;;;;;;;;;;-2.90;98.00;;;;;;5056796;28;19954;-72
2021/03/01 05:14:57;;;;;;;;;;;-2.80;98.00;;;;;;5053837;28;20270;-72
2021/03/01 05:17:23;;;;;;;;;;;-2.90;98.00;;;;;;5054202;28;19999;-72
2021/03/01 05:19:48;;;;;;;;;;;-2.90;98.00;;;;;;5056464;28;19909;-72
2021/03/01 05:22:14;;;;;;;;;;;-2.90;98.00;;;;;;5051411;28;19966;-72
2021/03/01 05:24:40;;;;;;;;;;;-2.80;98.00;;;;;;5059170;28;20307;-72
2021/03/01 05:27:05;;;;;;;;;;;-2.70;98.00;;;;;;5055907;28;20309;-72
2021/03/01 05:29:31;;;;;;;;;;;-2.80;98.00;;;;;;5056447;28;19996;-71
2021/03/01 05:31:56;;;;;;;;;;;-2.80;98.00;;;;;;5050305;28;19931;-72
2021/03/01 05:34:22;;;;;;;;;;;-2.90;98.00;;;;;;5063168;28;20305;-72
2021/03/01 05:36:47;;;;;;;;;;;-2.80;98.00;;;;;;5056117;28;19908;-72
2021/03/01 05:39:13;;;;;;;;;;;-2.80;98.00;;;;;;5054088;28;19915;-72
2021/03/01 05:41:39;;;;;;;;;;;-2.90;98.00;;;;;;5057218;28;20323;-73
2021/03/01 05:44:05;;;;;;;;;;;-3.00;98.00;;;;;;5063005;28;19977;-72
2021/03/01 05:46:32;;;;;;;;;;;-3.10;98.00;;;;;;5056945;28;20220;-71
2021/03/01 05:48:58;;;;;;;;;;;-3.00;98.00;;;;;;5055769;28;19916;-72
2021/03/01 05:51:24;;;;;;;;;;;-3.00;98.00;;;;;;5054417;28;19909;-71
2021/03/01 05:53:50;;;;;;;;;;;-3.00;98.00;;;;;;5046190;28;19916;-72
2021/03/01 05:56:16;;;;;;;;;;;-2.90;98.00;;;;;;5053748;28;20034;-73
2021/03/01 05:58:45;;;;;;;;;;;-2.90;98.00;;;;;;5045983;28;20013;-71
2021/03/01 06:01:11;;;;;;;;;;;-2.90;98.00;;;;;;5046883;28;19909;-70
2021/03/01 06:03:37;;;;;;;;;;;-2.90;98.00;;;;;;5056354;28;19912;-70
2021/03/01 06:06:04;;;;;;;;;;;-2.90;98.00;;;;;;5055192;28;20015;-70
2021/03/01 06:08:31;;;;;;;;;;;-2.90;98.00;;;;;;5062771;28;20403;-71
2021/03/01 06:10:56;;;;;;;;;;;-3.00;98.00;;;;;;5058115;28;20007;-71
2021/03/01 06:13:23;;;;;;;;;;;-3.00;98.00;;;;;;5056764;28;20003;-72
2021/03/01 06:15:48;;;;;;;;;;;-3.10;98.00;;;;;;5054084;28;19909;-72
2021/03/01 06:18:14;;;;;;;;;;;-3.00;98.00;;;;;;5051483;28;20212;-72
2021/03/01 06:20:40;;;;;;;;;;;-2.90;98.00;;;;;;5058130;28;20232;-72
2021/03/01 06:23:06;;;;;;;;;;;-2.90;98.00;;;;;;5053305;28;19916;-72
2021/03/01 06:25:31;;;;;;;;;;;-2.90;98.00;;;;;;5042746;28;19913;-71
2021/03/01 06:27:58;;;;;;;;;;;-2.80;98.00;;;;;;5058718;28;19917;-72
2021/03/01 06:30:25;;;;;;;;;;;-2.80;98.00;;;;;;5058936;28;19904;-72
2021/03/01 06:33:06;;;;;;;;;;;-2.80;98.00;;;;;;5056431;28;19909;-72
2021/03/01 06:35:34;;;;;;;;;;;-2.80;98.00;;;;;;5057127;28;19955;-72
2021/03/01 06:38:13;;;;;;;;;;;-2.70;98.00;;;;;;5058696;28;19909;-72
2021/03/01 06:40:39;;;;;;;;;;;-2.70;98.00;;;;;;5057852;28;20365;-72
2021/03/01 06:43:12;;;;;;;;;;;-2.70;98.00;;;;;;5058593;28;19939;-71
2021/03/01 06:45:37;;;;;;;;;;;-2.60;98.00;;;;;;5058365;28;19909;-71
2021/03/01 06:48:03;;;;;;;;;;;-2.60;98.00;;;;;;5057009;28;20240;-71
2021/03/01 06:50:33;;;;;;;;;;;-2.50;98.00;;;;;;5058183;28;20012;-70
2021/03/01 06:53:00;;;;;;;;;;;-2.40;98.00;;;;;;5058636;28;20281;-70
2021/03/01 06:55:26;;;;;;;;;;;-2.30;98.00;;;;;;5062639;28;19913;-70
2021/03/01 06:57:51;;;;;;;;;;;-2.10;98.00;;;;;;5055184;28;19944;-70
2021/03/01 07:00:22;;;;;;;;;;;-2.00;98.00;;;;;;5058554;28;20376;-70
2021/03/01 07:02:47;;;;;;;;;;;-1.90;98.00;;;;;;5057131;28;19934;-72
2021/03/01 07:05:13;;;;;;;;;;;-1.90;98.00;;;;;;5067147;28;19999;-72
2021/03/01 07:07:38;;;;;;;;;;;-1.80;98.00;;;;;;5058207;28;19920;-71
2021/03/01 07:10:05;;;;;;;;;;;-1.80;98.00;;;;;;5064901;28;19908;-72
2021/03/01 07:12:41;;;;;;;;;;;-1.60;98.00;;;;;;5078131;28;19905;-72
2021/03/01 07:15:08;;;;;;;;;;;-1.50;98.00;;;;;;5071109;28;19913;-72
2021/03/01 07:17:35;;;;;;;;;;;-1.40;98.00;;;;;;5056523;28;19940;-72
2021/03/01 07:20:01;;;;;;;;;;;-1.30;98.00;;;;;;5057649;28;19916;-71
2021/03/01 07:22:27;;;;;;;;;;;-1.20;98.00;;;;;;5057821;28;19908;-72
2021/03/01 07:24:53;;;;;;;;;;;-1.10;98.00;;;;;;5057967;28;19920;-72
2021/03/01 07:27:19;;;;;;;;;;;-1.00;98.00;;;;;;5057355;28;19934;-72
2021/03/01 07:29:45;;;;;;;;;;;-0.90;98.00;;;;;;5061956;28;19910;-71
2021/03/01 07:32:13;;;;;;;;;;;-0.70;98.00;;;;;;5075957;28;19911;-71
2021/03/01 07:34:39;;;;;;;;;;;-0.60;98.00;;;;;;5076065;28;20010;-71
2021/03/01 07:37:04;;;;;;;;;;;-0.40;98.00;;;;;;5063339;28;19909;-72
2021/03/01 07:39:31;;;;;;;;;;;-0.30;98.00;;;;;;5058355;28;19960;-71
2021/03/01 07:41:57;;;;;;;;;;;-0.20;98.00;;;;;;5074065;28;19908;-72
2021/03/01 07:44:25;;;;;;;;;;;0.00;98.00;;;;;;5057547;28;19912;-71
2021/03/01 07:46:51;;;;;;;;;;;0.20;98.00;;;;;;5055893;28;19913;-71
2021/03/01 07:49:35;;;;;;;;;;;0.30;98.00;;;;;;5070982;28;19915;-72
2021/03/01 07:52:01;;;;;;;;;;;0.40;97.90;;;;;;5057197;28;19978;-71
2021/03/01 07:54:45;;;;;;;;;;;0.70;97.40;;;;;;5074272;28;20221;-72
2021/03/01 07:57:11;;;;;;;;;;;0.90;96.70;;;;;;5057150;28;19992;-72
2021/03/01 07:59:36;;;;;;;;;;;1.00;96.50;;;;;;5077067;28;19936;-70
2021/03/01 08:02:13;;;;;;;;;;;1.10;96.40;;;;;;5071649;28;19909;-71
2021/03/01 08:04:39;;;;;;;;;;;1.20;96.40;;;;;;5076788;28;19975;-72
2021/03/01 08:07:05;;;;;;;;;;;1.50;95.60;;;;;;5075745;28;19947;-71
2021/03/01 08:09:47;;;;;;;;;;;1.70;94.90;;;;;;5057252;28;19908;-70
2021/03/01 08:12:36;;;;;;;;;;;1.90;94.10;;;;;;5056710;28;19912;-71
2021/03/01 08:15:04;;;;;;;;;;;2.20;93.60;;;;;;5056997;28;19991;-72
2021/03/01 08:17:30;;;;;;;;;;;2.40;92.30;;;;;;5057991;28;19919;-72
2021/03/01 08:19:57;;;;;;;;;;;2.50;92.30;;;;;;5066479;28;19913;-72
2021/03/01 08:22:23;;;;;;;;;;;2.60;91.20;;;;;;5054547;28;19908;-71
2021/03/01 08:24:49;;;;;;;;;;;2.90;91.00;;;;;;5056054;28;19912;-72
2021/03/01 08:27:26;;;;;;;;;;;4.00;88.50;;;;;;5057591;28;20293;-71
2021/03/01 08:30:11;;;;;;;;;;;5.50;84.60;;;;;;5055536;28;19904;-71
2021/03/01 08:32:36;;;;;;;;;;;7.00;78.40;;;;;;5062431;28;19912;-72
2021/03/01 08:35:40;;;;;;;;;;;8.00;74.40;;;;;;5060627;28;20328;-72
2021/03/01 08:38:06;;;;;;;;;;;8.60;73.60;;;;;;5014733;28;19992;-71
2021/03/01 08:40:32;;;;;;;;;;;9.60;69.60;;;;;;5014522;28;19909;-71
2021/03/01 08:43:00;;;;;;;;;;;9.70;69.70;;;;;;5033370;28;19915;-72
2021/03/01 08:45:26;;;;;;;;;;;9.80;68.00;;;;;;5056688;28;19982;-72
2021/03/01 08:47:52;;;;;;;;;;;9.80;68.80;;;;;;5055229;28;20301;-72
2021/03/01 08:50:21;;;;;;;;;;;10.10;68.10;;;;;;5056188;28;19954;-71
2021/03/01 08:52:50;;;;;;;;;;;10.20;66.90;;;;;;5055844;28;19913;-72
2021/03/01 08:55:16;;;;;;;;;;;10.50;67.00;;;;;;5061862;28;19908;-72
2021/03/01 08:57:55;;;;;;;;;;;10.40;66.80;;;;;;5056725;28;20365;-72
2021/03/01 09:00:21;;;;;;;;;;;10.00;67.50;;;;;;5057630;28;19915;-72
2021/03/01 09:02:46;;;;;;;;;;;10.50;66.80;;;;;;5035497;28;19991;-72
2021/03/01 09:05:15;;;;;;;;;;;10.60;66.80;;;;;;5049886;28;19955;-71
2021/03/01 09:07:42;;;;;;;;;;;10.90;65.80;;;;;;5055472;28;19917;-72
2021/03/01 09:10:08;;;;;;;;;;;10.80;65.80;;;;;;5055497;28;19909;-71
2021/03/01 09:12:33;;;;;;;;;;;10.20;66.40;;;;;;5055711;28;20000;-72
2021/03/01 09:14:59;;;;;;;;;;;10.00;67.50;;;;;;5055086;28;19948;-71
2021/03/01 09:17:24;;;;;;;;;;;10.00;67.90;;;;;;5055457;28;19932;-71
2021/03/01 09:19:50;;;;;;;;;;;10.20;66.90;;;;;;5055531;28;19905;-72
2021/03/01 09:22:15;;;;;;;;;;;10.30;66.90;;;;;;5055981;28;19931;-71
2021/03/01 09:24:41;;;;;;;;;;;9.40;68.40;;;;;;5055789;28;19916;-72
2021/03/01 09:27:06;;;;;;;;;;;9.40;69.20;;;;;;5055582;28;20225;-72
2021/03/01 09:29:32;;;;;;;;;;;9.70;68.80;;;;;;5055885;28;19905;-71
2021/03/01 09:31:58;;;;;;;;;;;9.90;68.60;;;;;;5053281;28;19962;-72
2021/03/01 09:34:27;;;;;;;;;;;10.80;67.00;;;;;;5054448;28;19909;-72
2021/03/01 09:36:53;;;;;;;;;;;10.80;66.50;;;;;;5055582;28;20011;-71
2021/03/01 09:39:25;;;;;;;;;;;11.00;66.30;;;;;;5055625;28;20019;-72
2021/03/01 09:41:51;;;;;;;;;;;11.20;65.40;;;;;;5055145;28;19908;-71
2021/03/01 09:44:24;;;;;;;;;;;10.70;66.00;;;;;;5054853;28;19912;-70
2021/03/01 09:46:51;;;;;;;;;;;10.70;67.10;;;;;;5041114;28;19924;-70
2021/03/01 09:49:19;;;;;;;;;;;11.00;66.90;;;;;;5054585;28;20183;-69
2021/03/01 09:51:46;;;;;;;;;;;11.40;65.60;;;;;;5055397;28;20443;-69
2021/03/01 09:54:12;;;;;;;;;;;11.60;64.50;;;;;;5055483;28;20305;-70
2021/03/01 09:56:38;;;;;;;;;;;10.90;65.60;;;;;;5059066;28;19916;-69
2021/03/01 09:59:04;;;;;;;;;;;10.90;66.20;;;;;;5059494;28;19905;-72
2021/03/01 10:01:29;;;;;;;;;;;11.30;65.40;;;;;;5056924;28;20017;-72
2021/03/01 10:03:55;;;;;;;;;;;11.40;65.60;;;;;;5058807;28;19978;-72
2021/03/01 10:06:31;;;;;;;;;;;11.70;65.40;;;;;;5058680;28;19999;-71
2021/03/01 10:09:07;;;;;;;;;;;11.80;65.00;;;;;;5058538;28;19995;-72
2021/03/01 10:11:39;;;;;;;;;;;12.30;64.10;;;;;;5059027;28;19909;-72
2021/03/01 10:14:08;;;;;;;;;;;12.20;63.00;;;;;;5058758;28;20043;-72
2021/03/01 10:16:40;;;;;;;;;;;11.90;63.80;;;;;;5057819;28;20187;-72
2021/03/01 10:19:13;;;;;;;;;;;11.70;64.30;;;;;;5058761;28;19955;-72
2021/03/01 10:21:39;;;;;;;;;;;12.00;63.40;;;;;;5060122;28;19934;-72
2021/03/01 10:24:06;;;;;;;;;;;12.00;63.30;;;;;;5064043;28;20619;-72
2021/03/01 10:26:33;;;;;;;;;;;12.00;63.80;;;;;;5056607;28;20420;-72
2021/03/01 10:28:59;;;;;;;;;;;12.10;62.70;;;;;;5060013;28;19916;-71
2021/03/01 10:31:35;;;;;;;;;;;11.40;64.70;;;;;;5065135;28;19915;-72
2021/03/01 10:34:11;;;;;;;;;;;11.30;64.50;;;;;;5061069;28;19913;-70
2021/03/01 10:36:39;;;;;;;;;;;11.70;64.90;;;;;;5057806;28;19912;-73
2021/03/01 10:39:05;;;;;;;;;;;12.50;62.50;;;;;;5058736;28;19987;-73
2021/03/01 10:41:33;;;;;;;;;;;12.10;63.00;;;;;;5070203;28;20016;-73
2021/03/01 10:44:06;;;;;;;;;;;12.40;63.20;;;;;;5058254;28;20238;-72
2021/03/01 10:46:50;;;;;;;;;;;12.30;62.20;;;;;;5056748;28;19913;-72
2021/03/01 10:49:15;;;;;;;;;;;12.10;63.20;;;;;;5058311;28;19912;-73
2021/03/01 10:51:41;;;;;;;;;;;12.50;62.90;;;;;;5061558;28;19930;-73
2021/03/01 10:54:07;;;;;;;;;;;12.60;61.80;;;;;;5063680;28;19916;-73
2021/03/01 10:56:33;;;;;;;;;;;13.00;61.90;;;;;;5057612;28;19905;-73
2021/03/01 10:58:58;;;;;;;;;;;13.10;60.70;;;;;;5058528;28;19908;-73
2021/03/01 11:01:34;;;;;;;;;;;13.10;60.20;;;;;;5055959;28;19905;-73
2021/03/01 11:03:59;;;;;;;;;;;13.70;58.90;;;;;;5058246;28;19909;-72
2021/03/01 11:06:25;;;;;;;;;;;13.40;57.30;;;;;;5057198;28;19909;-72
2021/03/01 11:08:50;;;;;;;;;;;14.00;53.30;;;;;;5058023;28;19919;-73
2021/03/01 11:11:16;;;;;;;;;;;13.40;57.20;;;;;;5058153;28;19954;-73
2021/03/01 11:13:41;;;;;;;;;;;13.80;55.00;;;;;;5058391;28;20361;-73
2021/03/01 11:16:07;;;;;;;;;;;14.70;52.10;;;;;;5057020;28;19928;-73
2021/03/01 11:18:32;;;;;;;;;;;14.90;50.30;;;;;;5056838;28;19917;-73
2021/03/01 11:20:58;;;;;;;;;;;15.30;50.70;;;;;;5064844;28;19908;-73
2021/03/01 11:23:23;;;;;;;;;;;15.70;49.40;;;;;;5057711;28;19909;-72
2021/03/01 11:25:49;;;;;;;;;;;15.80;49.40;;;;;;5068530;28;19916;-72
2021/03/01 11:28:14;;;;;;;;;;;16.30;48.90;;;;;;5070370;28;20018;-72
2021/03/01 11:30:40;;;;;;;;;;;16.30;47.90;;;;;;5058039;28;20289;-72
2021/03/01 11:33:07;;;;;;;;;;;16.20;48.00;;;;;;5056706;28;20232;-72
2021/03/01 11:35:33;;;;;;;;;;;16.60;49.30;;;;;;5058824;28;20285;-72
2021/03/01 11:37:58;;;;;;;;;;;16.70;46.10;;;;;;5060783;28;19912;-72
2021/03/01 11:40:24;;;;;;;;;;;16.80;46.20;;;;;;5058286;28;19908;-72
2021/03/01 11:42:49;;;;;;;;;;;16.90;46.60;;;;;;5058015;28;20301;-72
2021/03/01 11:45:15;;;;;;;;;;;16.90;45.80;;;;;;5057612;28;20320;-71
2021/03/01 11:47:40;;;;;;;;;;;17.00;47.30;;;;;;5075731;28;20300;-72
2021/03/01 11:50:06;;;;;;;;;;;16.90;46.50;;;;;;5065264;28;19904;-72
2021/03/01 11:52:31;;;;;;;;;;;16.90;46.40;;;;;;5068087;28;19909;-72
2021/03/01 11:54:58;;;;;;;;;;;16.60;46.60;;;;;;5072329;28;20293;-73
2021/03/01 11:57:27;;;;;;;;;;;16.40;46.50;;;;;;5057525;28;19908;-73
2021/03/01 11:59:53;;;;;;;;;;;16.70;46.40;;;;;;5055796;28;19905;-72
2021/03/01 12:02:18;;;;;;;;;;;16.90;46.60;;;;;;5055096;28;19916;-73
2021/03/01 12:04:44;;;;;;;;;;;17.00;45.60;;;;;;5057203;28;19909;-73
2021/03/01 12:07:09;;;;;;;;;;;16.70;46.80;;;;;;5043107;28;20214;-73
2021/03/01 12:09:35;;;;;;;;;;;16.40;47.00;;;;;;5049484;28;19904;-73
2021/03/01 12:12:01;;;;;;;;;;;15.90;46.60;;;;;;5052212;28;20186;-72
2021/03/01 12:14:26;;;;;;;;;;;15.90;48.20;;;;;;5057575;28;19905;-73
2021/03/01 12:16:52;;;;;;;;;;;16.20;47.80;;;;;;5054302;28;20293;-72
2021/03/01 12:19:17;;;;;;;;;;;16.30;47.80;;;;;;5057068;28;20294;-73
2021/03/01 12:21:43;;;;;;;;;;;16.30;47.40;;;;;;5057862;28;19930;-73
2021/03/01 12:24:09;;;;;;;;;;;16.30;47.90;;;;;;5054838;28;19917;-72
2021/03/01 12:26:35;;;;;;;;;;;16.50;48.10;;;;;;5060851;28;19918;-73
2021/03/01 12:29:00;;;;;;;;;;;17.10;47.50;;;;;;5057468;28;19995;-72
2021/03/01 12:31:29;;;;;;;;;;;17.30;47.20;;;;;;5058009;28;19916;-71
2021/03/01 12:33:56;;;;;;;;;;;17.70;46.90;;;;;;5056061;28;19912;-72
2021/03/01 12:36:21;;;;;;;;;;;17.80;45.80;;;;;;5057420;28;19935;-73
2021/03/01 12:38:47;;;;;;;;;;;17.40;44.40;;;;;;5055187;28;19962;-69
2021/03/01 12:41:12;;;;;;;;;;;17.00;45.90;;;;;;5055767;28;19935;-72
2021/03/01 12:43:38;;;;;;;;;;;16.80;45.40;;;;;;5056618;28;19921;-73
2021/03/01 12:46:03;;;;;;;;;;;16.70;46.30;;;;;;5062081;28;19912;-71
2021/03/01 12:48:29;;;;;;;;;;;16.90;47.20;;;;;;5055379;28;19919;-71
2021/03/01 12:50:55;;;;;;;;;;;16.70;46.60;;;;;;5055115;28;19912;-70
2021/03/01 12:53:21;;;;;;;;;;;16.50;47.30;;;;;;5052466;28;19914;-72
2021/03/01 12:55:46;;;;;;;;;;;16.30;47.30;;;;;;5048710;28;19916;-72
2021/03/01 12:58:12;;;;;;;;;;;16.50;49.10;;;;;;5052729;28;19920;-72
2021/03/01 13:00:38;;;;;;;;;;;16.80;47.10;;;;;;5051096;28;19912;-73
2021/03/01 13:03:03;;;;;;;;;;;16.30;47.00;;;;;;5051649;28;20593;-73
2021/03/01 13:05:29;;;;;;;;;;;16.20;48.10;;;;;;5050883;28;20000;-71
2021/03/01 13:07:54;;;;;;;;;;;16.00;48.10;;;;;;5050184;28;19923;-72
2021/03/01 13:10:20;;;;;;;;;;;16.30;50.20;;;;;;5048523;28;19915;-72
2021/03/01 13:12:46;;;;;;;;;;;16.60;49.10;;;;;;5057130;28;19912;-72
2021/03/01 13:15:13;;;;;;;;;;;16.70;49.00;;;;;;5054517;28;19939;-71
2021/03/01 13:17:38;;;;;;;;;;;16.10;48.50;;;;;;5050735;28;20301;-71
2021/03/01 13:20:04;;;;;;;;;;;15.80;50.10;;;;;;5049787;28;19967;-72
2021/03/01 13:22:30;;;;;;;;;;;15.90;50.20;;;;;;5055031;28;19908;-72
2021/03/01 13:24:56;;;;;;;;;;;16.00;50.20;;;;;;5043461;28;19913;-71
2021/03/01 13:27:22;;;;;;;;;;;16.10;50.80;;;;;;5056181;28;19927;-71
2021/03/01 13:29:48;;;;;;;;;;;16.10;50.10;;;;;;5070582;28;20297;-72
2021/03/01 13:32:13;;;;;;;;;;;16.20;51.00;;;;;;5053619;28;19966;-71
2021/03/01 13:34:39;;;;;;;;;;;16.20;51.50;;;;;;5054830;28;19913;-72
2021/03/01 13:37:06;;;;;;;;;;;16.30;50.40;;;;;;5054986;28;19909;-72
2021/03/01 13:39:32;;;;;;;;;;;16.10;51.20;;;;;;5055188;28;19909;-71
2021/03/01 13:41:58;;;;;;;;;;;15.80;51.90;;;;;;5050009;28;19909;-72
2021/03/01 13:44:23;;;;;;;;;;;15.60;52.00;;;;;;5055253;28;19924;-72
2021/03/01 13:46:49;;;;;;;;;;;15.80;52.20;;;;;;5053580;28;19909;-73
2021/03/01 13:49:14;;;;;;;;;;;15.60;53.10;;;;;;5056823;28;19908;-72
2021/03/01 13:51:40;;;;;;;;;;;15.80;53.00;;;;;;5054995;28;19932;-71
2021/03/01 13:54:05;;;;;;;;;;;15.70;52.20;;;;;;5055018;28;20327;-71
2021/03/01 13:56:31;;;;;;;;;;;15.50;53.00;;;;;;5054630;28;19986;-71
2021/03/01 13:58:57;;;;;;;;;;;15.50;52.90;;;;;;5055350;28;20368;-72
2021/03/01 14:01:22;;;;;;;;;;;15.70;53.30;;;;;;5053149;28;19912;-72
2021/03/01 14:03:48;;;;;;;;;;;15.60;52.20;;;;;;5054611;28;20066;-73
2021/03/01 14:06:14;;;;;;;;;;;15.40;52.70;;;;;;5039661;28;19949;-73
2021/03/01 14:08:41;;;;;;;;;;;15.10;52.50;;;;;;5046816;28;20007;-73
2021/03/01 14:11:07;;;;;;;;;;;15.20;54.10;;;;;;5053764;28;19908;-72
2021/03/01 14:13:32;;;;;;;;;;;15.50;55.60;;;;;;5055996;28;19919;-73
2021/03/01 14:15:58;;;;;;;;;;;15.70;52.80;;;;;;5056921;28;19909;-72
2021/03/01 14:18:23;;;;;;;;;;;15.90;52.90;;;;;;5055116;28;19908;-72